createdAt,value
2019-04-29T00:01:31.113Z,100080.82
2019-04-29T00:03:59.521Z,100075.34
2019-04-29T00:06:27.931Z,100076.48
2019-04-29T00:08:56.467Z,100072.41
2019-04-29T00:11:24.944Z,100074.78
2019-04-29T00:13:53.414Z,100072.58
2019-04-29T00:16:32.765Z,100074.11
2019-04-29T00:19:18.822Z,100069.86
2019-04-29T00:21:47.486Z,100070.52
2019-04-29T00:24:16.325Z,100078.20
2019-04-29T00:26:44.815Z,100087.28
2019-04-29T00:29:13.200Z,100081.22
2019-04-29T00:31:41.581Z,100085.58
2019-04-29T00:34:09.993Z,100087.34
2019-04-29T00:36:40.090Z,100089.90
2019-04-29T00:39:10.291Z,100087.23
2019-04-29T00:41:46.105Z,100092.40
2019-04-29T00:44:16.374Z,100093.59
2019-04-29T00:46:45.062Z,100100.51
2019-04-29T00:49:13.554Z,100097.44
2019-04-29T00:51:41.936Z,100099.94
2019-04-29T00:54:12.411Z,100097.67
2019-04-29T00:56:40.931Z,100103.80
2019-04-29T00:59:09.325Z,100106.81
2019-04-29T01:01:38.030Z,100107.66
2019-04-29T01:04:06.691Z,100108.50
2019-04-29T01:06:35.066Z,100106.81
2019-04-29T01:09:06.618Z,100105.56
2019-04-29T01:11:35.176Z,100114.77
2019-04-29T01:14:03.638Z,100113.98
2019-04-29T01:16:32.294Z,100109.66
2019-04-29T01:19:03.760Z,100118.47
2019-04-29T01:21:31.211Z,100116.38
2019-04-29T01:23:59.619Z,100110.75
2019-04-29T01:26:29.944Z,100120.41
2019-04-29T01:29:02.519Z,100120.06
2019-04-29T01:31:31.801Z,100119.60
2019-04-29T01:34:02.073Z,100119.11
2019-04-29T01:36:32.138Z,100117.74
2019-04-29T01:39:02.009Z,100115.92
2019-04-29T01:41:47.987Z,100123.18
2019-04-29T01:44:18.058Z,100122.60
2019-04-29T01:46:46.439Z,100121.06
2019-04-29T01:49:14.880Z,100117.98
2019-04-29T01:51:43.612Z,100119.68
2019-04-29T01:54:12.013Z,100120.41
2019-04-29T01:56:40.499Z,100126.36
2019-04-29T01:59:08.937Z,100127.95
2019-04-29T02:01:37.375Z,100124.47
2019-04-29T02:04:05.960Z,100129.69
2019-04-29T02:06:34.349Z,100133.11
2019-04-29T02:09:03.281Z,100128.39
2019-04-29T02:11:31.711Z,100135.32
2019-04-29T02:14:00.124Z,100137.53
2019-04-29T02:16:28.515Z,100136.10
2019-04-29T02:18:56.942Z,100133.49
2019-04-29T02:21:25.315Z,100140.02
2019-04-29T02:23:55.367Z,100139.44
2019-04-29T02:26:23.782Z,100152.05
2019-04-29T02:28:52.166Z,100150.23
2019-04-29T02:31:38.836Z,100153.68
2019-04-29T02:34:08.303Z,100153.22
2019-04-29T02:36:37.616Z,100159.69
2019-04-29T02:39:20.879Z,100163.88
2019-04-29T02:42:07.033Z,100157.36
2019-04-29T02:44:35.511Z,100165.56
2019-04-29T02:47:03.971Z,100155.46
2019-04-29T02:49:32.374Z,100155.93
2019-04-29T02:52:01.132Z,100155.13
2019-04-29T02:54:30.008Z,100155.59
2019-04-29T02:57:05.928Z,100153.81
2019-04-29T02:59:38.430Z,100155.13
2019-04-29T03:02:24.395Z,100151.92
2019-04-29T03:05:05.959Z,100150.68
2019-04-29T03:07:34.421Z,100156.56
2019-04-29T03:10:03.196Z,100158.58
2019-04-29T03:12:31.668Z,100155.39
2019-04-29T03:15:00.444Z,100164.73
2019-04-29T03:17:29.264Z,100165.20
2019-04-29T03:20:14.838Z,100170.33
2019-04-29T03:22:44.887Z,100171.97
2019-04-29T03:25:13.414Z,100168.89
2019-04-29T03:27:41.801Z,100169.73
2019-04-29T03:30:10.450Z,100169.23
2019-04-29T03:32:38.902Z,100173.70
2019-04-29T03:35:07.442Z,100172.81
2019-04-29T03:37:35.863Z,100176.59
2019-04-29T03:40:06.136Z,100174.45
2019-04-29T03:42:34.523Z,100176.53
2019-04-29T03:45:03.013Z,100176.91
2019-04-29T03:47:31.387Z,100181.62
2019-04-29T03:49:59.817Z,100185.59
2019-04-29T03:52:28.228Z,100184.60
2019-04-29T03:54:56.710Z,100184.53
2019-04-29T03:57:25.088Z,100188.45
2019-04-29T03:59:56.982Z,100188.78
2019-04-29T04:02:25.690Z,100190.09
2019-04-29T04:05:11.654Z,100189.63
2019-04-29T04:07:41.707Z,100187.98
2019-04-29T04:10:10.912Z,100188.05
2019-04-29T04:12:39.287Z,100188.45
2019-04-29T04:15:07.853Z,100193.67
2019-04-29T04:17:49.828Z,100190.00
2019-04-29T04:20:18.611Z,100194.84
2019-04-29T04:22:47.779Z,100192.23
2019-04-29T04:25:18.368Z,100201.09
2019-04-29T04:27:47.689Z,100194.20
2019-04-29T04:30:17.099Z,100199.14
2019-04-29T04:32:45.507Z,100191.78
2019-04-29T04:35:15.599Z,100198.38
2019-04-29T04:37:45.602Z,100198.84
2019-04-29T04:40:26.689Z,100202.51
2019-04-29T04:42:55.096Z,100208.62
2019-04-29T04:45:23.490Z,100213.02
2019-04-29T04:47:51.981Z,100219.07
2019-04-29T04:50:20.458Z,100220.48
2019-04-29T04:52:48.866Z,100220.73
2019-04-29T04:55:18.466Z,100214.78
2019-04-29T04:57:46.857Z,100217.79
2019-04-29T05:00:23.272Z,100217.72
2019-04-29T05:02:51.766Z,100224.25
2019-04-29T05:05:20.184Z,100220.33
2019-04-29T05:07:48.849Z,100225.95
2019-04-29T05:10:17.277Z,100228.62
2019-04-29T05:12:45.670Z,100236.39
2019-04-29T05:15:15.027Z,100238.96
2019-04-29T05:17:43.525Z,100238.99
2019-04-29T05:20:12.456Z,100235.15
2019-04-29T05:22:42.516Z,100240.63
2019-04-29T05:25:11.102Z,100245.61
2019-04-29T05:27:39.502Z,100241.72
2019-04-29T05:30:08.134Z,100243.42
2019-04-29T05:32:36.555Z,100250.64
2019-04-29T05:35:08.029Z,100220.01
2019-04-29T05:37:52.198Z,100243.17
2019-04-29T05:40:40.327Z,100253.32
2019-04-29T05:43:10.411Z,100254.55
2019-04-29T05:45:47.803Z,100249.31
2019-04-29T05:48:17.985Z,100251.61
2019-04-29T05:50:52.171Z,100253.76
2019-04-29T05:53:19.807Z,100260.20
2019-04-29T05:55:48.214Z,100255.45
2019-04-29T05:58:16.655Z,100260.23
2019-04-29T06:00:46.690Z,100265.09
2019-04-29T06:03:15.093Z,100267.55
2019-04-29T06:05:43.512Z,100267.42
2019-04-29T06:08:11.917Z,100267.99
2019-04-29T06:10:42.059Z,100271.70
2019-04-29T06:13:10.521Z,100272.09
2019-04-29T06:15:39.174Z,100269.89
2019-04-29T06:18:07.576Z,100271.01
2019-04-29T06:20:36.084Z,100273.03
2019-04-29T06:23:04.881Z,100280.07
2019-04-29T06:25:33.280Z,100290.45
2019-04-29T06:28:01.713Z,100290.73
2019-04-29T06:30:30.117Z,100290.70
2019-04-29T06:32:58.506Z,100284.95
2019-04-29T06:35:27.007Z,100294.05
2019-04-29T06:37:55.425Z,100295.61
2019-04-29T06:40:23.846Z,100297.76
2019-04-29T06:42:53.494Z,100297.38
2019-04-29T06:45:22.447Z,100299.66
2019-04-29T06:47:50.838Z,100300.95
2019-04-29T06:50:19.249Z,100307.61
2019-04-29T06:52:47.643Z,100309.38
2019-04-29T06:55:16.040Z,100308.17
2019-04-29T06:57:44.481Z,100308.17
2019-04-29T07:00:17.513Z,100314.73
2019-04-29T07:02:45.508Z,100317.41
2019-04-29T07:05:14.361Z,100319.30
2019-04-29T07:07:42.777Z,100325.84
2019-04-29T07:10:11.336Z,100324.59
2019-04-29T07:12:42.831Z,100319.19
2019-04-29T07:15:12.312Z,100320.34
2019-04-29T07:17:41.291Z,100317.92
2019-04-29T07:20:11.049Z,100319.34
2019-04-29T07:22:39.455Z,100319.77
2019-04-29T07:25:07.926Z,100320.30
2019-04-29T07:27:43.074Z,100318.36
2019-04-29T07:30:08.517Z,100314.16
2019-04-29T07:32:37.061Z,100317.90
2019-04-29T07:35:09.849Z,100315.33
2019-04-29T07:37:37.520Z,100317.15
2019-04-29T07:40:07.986Z,100319.16
2019-04-29T07:42:37.350Z,100324.37
2019-04-29T07:45:28.220Z,100318.23
2019-04-29T07:47:57.044Z,100315.56
2019-04-29T07:50:26.629Z,100315.30
2019-04-29T07:52:55.844Z,100315.45
2019-04-29T07:55:26.123Z,100315.45
2019-04-29T07:57:54.382Z,100317.15
2019-04-29T08:00:36.206Z,100314.40
2019-04-29T08:03:07.337Z,100311.37
2019-04-29T08:05:36.270Z,100310.46
2019-04-29T08:08:05.239Z,100305.31
2019-04-29T08:10:33.999Z,100303.19
2019-04-29T08:13:02.465Z,100306.33
2019-04-29T08:15:32.080Z,100301.46
2019-04-29T08:18:06.839Z,100305.79
2019-04-29T08:20:30.629Z,100300.28
2019-04-29T08:23:02.544Z,100290.26
2019-04-29T08:25:29.211Z,100289.89
2019-04-29T08:27:57.578Z,100291.75
2019-04-29T08:30:26.011Z,100289.65
2019-04-29T08:32:54.402Z,100291.39
2019-04-29T08:35:22.814Z,100292.66
2019-04-29T08:37:51.634Z,100285.41
2019-04-29T08:40:20.098Z,100284.37
2019-04-29T08:43:05.189Z,100282.06
2019-04-29T08:45:39.119Z,100287.39
2019-04-29T08:48:07.796Z,100273.11
2019-04-29T08:50:36.296Z,100280.34
2019-04-29T08:53:05.268Z,100268.09
2019-04-29T08:55:36.170Z,100265.05
2019-04-29T08:58:06.855Z,100270.83
2019-04-29T09:00:34.919Z,100264.20
2019-04-29T09:03:03.309Z,100260.23
2019-04-29T09:05:31.721Z,100260.67
2019-04-29T09:08:00.117Z,100261.56
2019-04-29T09:10:28.516Z,100255.34
2019-04-29T09:12:56.937Z,100253.05
2019-04-29T09:15:25.341Z,100252.89
2019-04-29T09:17:53.736Z,100246.93
2019-04-29T09:20:23.817Z,100244.36
2019-04-29T09:22:53.860Z,100246.63
2019-04-29T09:25:26.307Z,100243.92
2019-04-29T09:27:56.404Z,100237.39
2019-04-29T09:30:25.038Z,100239.20
2019-04-29T09:32:53.435Z,100239.19
2019-04-29T09:35:21.910Z,100237.98
2019-04-29T09:37:53.775Z,100238.42
2019-04-29T09:40:28.533Z,100234.91
2019-04-29T09:43:15.498Z,100233.20
2019-04-29T09:45:42.328Z,100232.30
2019-04-29T09:48:10.726Z,100226.52
2019-04-29T09:50:40.877Z,100227.30
2019-04-29T09:53:09.285Z,100218.20
2019-04-29T09:55:40.069Z,100220.56
2019-04-29T09:58:07.794Z,100221.57
2019-04-29T10:00:41.838Z,100210.45
2019-04-29T10:03:14.638Z,100210.45
2019-04-29T10:05:47.487Z,100205.95
2019-04-29T10:08:15.954Z,100201.84
2019-04-29T10:10:45.197Z,100202.00
2019-04-29T10:13:13.694Z,100196.94
2019-04-29T10:15:56.030Z,100200.17
2019-04-29T10:18:25.056Z,100205.44
2019-04-29T10:21:02.200Z,100203.94
2019-04-29T10:23:30.616Z,100195.53
2019-04-29T10:25:59.016Z,100191.86
2019-04-29T10:28:27.481Z,100190.22
2019-04-29T10:30:56.452Z,100190.63
2019-04-29T10:33:25.756Z,100177.65
2019-04-29T10:35:54.157Z,100179.73
2019-04-29T10:38:22.580Z,100174.59
2019-04-29T10:41:11.409Z,100173.61
2019-04-29T10:43:44.547Z,100169.31
2019-04-29T10:46:14.657Z,100164.79
2019-04-29T10:48:44.697Z,100169.98
2019-04-29T10:51:14.565Z,100168.16
2019-04-29T10:53:46.727Z,100165.53
2019-04-29T10:56:13.593Z,100163.28
2019-04-29T10:58:42.000Z,100163.23
2019-04-29T11:01:29.168Z,100156.30
2019-04-29T11:04:00.961Z,100151.47
2019-04-29T11:06:31.297Z,100148.17
2019-04-29T11:08:59.496Z,100141.70
2019-04-29T11:11:30.484Z,100140.39
2019-04-29T11:14:01.546Z,100129.75
2019-04-29T11:16:45.347Z,100133.07
2019-04-29T11:19:05.082Z,100127.90
2019-04-29T11:21:31.349Z,100135.25
2019-04-29T11:24:04.510Z,100128.19
2019-04-29T11:26:34.643Z,100124.63
2019-04-29T11:29:05.534Z,100127.86
2019-04-29T11:31:34.807Z,100120.96
2019-04-29T11:34:11.683Z,100117.93
2019-04-29T11:36:44.089Z,100122.03
2019-04-29T11:39:13.888Z,100113.74
2019-04-29T11:41:41.710Z,100114.57
2019-04-29T11:44:10.116Z,100119.49
2019-04-29T11:46:38.509Z,100117.91
2019-04-29T11:49:07.199Z,100119.38
2019-04-29T11:52:07.347Z,100111.23
2019-04-29T11:54:12.756Z,100111.81
2019-04-29T11:56:40.748Z,100107.22
2019-04-29T11:59:16.649Z,100111.00
2019-04-29T12:02:03.334Z,100106.44
2019-04-29T12:04:34.628Z,100102.00
2019-04-29T12:07:04.060Z,100091.12
2019-04-29T12:09:33.254Z,100090.74
2019-04-29T12:12:01.657Z,100085.06
2019-04-29T12:14:40.981Z,100080.52
2019-04-29T12:17:20.143Z,100082.86
2019-04-29T12:19:50.232Z,100081.36
2019-04-29T12:22:28.378Z,100075.93
2019-04-29T12:24:48.753Z,100078.13
2019-04-29T12:27:19.714Z,100078.64
2019-04-29T12:29:48.865Z,100075.84
2019-04-29T12:32:20.712Z,100069.35
2019-04-29T12:34:53.777Z,100065.98
2019-04-29T12:37:25.601Z,100065.31
2019-04-29T12:39:55.752Z,100054.97
2019-04-29T12:42:41.919Z,100045.53
2019-04-29T12:45:19.301Z,100044.82
2019-04-29T12:47:43.982Z,100045.36
2019-04-29T12:50:12.809Z,100045.02
2019-04-29T12:52:41.299Z,100041.54
2019-04-29T12:55:20.401Z,100038.95
2019-04-29T12:57:40.869Z,100038.20
2019-04-29T13:00:11.598Z,100036.89
2019-04-29T13:03:00.225Z,100034.74
2019-04-29T13:05:57.517Z,100024.05
2019-04-29T13:08:25.426Z,100019.32
2019-04-29T13:10:55.529Z,100018.05
2019-04-29T13:13:23.931Z,100008.88
2019-04-29T13:16:10.598Z,100008.94
2019-04-29T13:18:53.761Z,100012.12
2019-04-29T13:21:19.308Z,100005.97
2019-04-29T13:23:59.452Z,99999.03
2019-04-29T13:26:27.757Z,99996.69
2019-04-29T13:29:03.250Z,99991.07
2019-04-29T13:31:20.141Z,99988.78
2019-04-29T13:33:51.036Z,99989.31
2019-04-29T13:36:19.703Z,99985.57
2019-04-29T13:38:49.287Z,99986.56
2019-04-29T13:41:23.729Z,99994.69
2019-04-29T13:43:48.729Z,99980.97
2019-04-29T13:46:21.513Z,99981.86
2019-04-29T13:49:13.529Z,99985.00
2019-04-29T13:51:42.276Z,99974.02
2019-04-29T13:54:10.669Z,99972.69
2019-04-29T13:56:54.551Z,99973.65
2019-04-29T13:59:12.545Z,99973.37
2019-04-29T14:01:58.465Z,99968.34
2019-04-29T14:04:24.666Z,99973.88
2019-04-29T14:06:56.944Z,99965.82
2019-04-29T14:09:20.213Z,99967.98
2019-04-29T14:12:01.126Z,99967.53
2019-04-29T14:14:22.635Z,99965.41
2019-04-29T14:16:48.872Z,99967.83
2019-04-29T14:19:20.601Z,99964.94
2019-04-29T14:21:47.446Z,99966.83
2019-04-29T14:24:15.934Z,99965.33
2019-04-29T14:26:47.763Z,99964.00
2019-04-29T14:29:14.503Z,99965.80
2019-04-29T14:31:43.855Z,99969.33
2019-04-29T14:34:22.405Z,99968.41
2019-04-29T14:36:50.818Z,99971.28
2019-04-29T14:39:36.249Z,99970.42
2019-04-29T14:41:55.321Z,99980.27
2019-04-29T14:44:34.885Z,99974.12
2019-04-29T14:47:11.014Z,99971.63
2019-04-29T14:49:46.901Z,99977.19
2019-04-29T14:52:15.597Z,99971.08
2019-04-29T14:54:44.009Z,99976.16
2019-04-29T14:57:12.419Z,99973.62
2019-04-29T14:59:40.989Z,99969.64
2019-04-29T15:02:16.205Z,99974.06
2019-04-29T15:04:43.337Z,99972.68
2019-04-29T15:07:11.794Z,99978.22
2019-04-29T15:09:46.861Z,99974.69
2019-04-29T15:12:23.867Z,99973.05
2019-04-29T15:14:54.642Z,99974.88
2019-04-29T15:17:34.421Z,99978.92
2019-04-29T15:20:04.957Z,99979.41
2019-04-29T15:22:34.940Z,99980.37
2019-04-29T15:25:03.771Z,99980.22
2019-04-29T15:27:32.143Z,99979.04
2019-04-29T15:30:00.804Z,99977.31
2019-04-29T15:32:29.238Z,99979.50
2019-04-29T15:34:57.612Z,99976.38
2019-04-29T15:37:25.997Z,99976.34
2019-04-29T15:39:54.474Z,99981.17
2019-04-29T15:42:22.870Z,99983.30
2019-04-29T15:44:51.684Z,99976.16
2019-04-29T15:47:21.470Z,99969.32
2019-04-29T15:49:49.873Z,99969.32
2019-04-29T15:52:21.004Z,99971.70
2019-04-29T15:54:51.043Z,99974.06
2019-04-29T15:57:18.901Z,99967.95
2019-04-29T15:59:48.960Z,99974.27
2019-04-29T16:02:17.390Z,99969.98
2019-04-29T16:05:04.750Z,99964.78
2019-04-29T16:07:34.362Z,99965.58
2019-04-29T16:10:20.674Z,99966.35
2019-04-29T16:12:54.792Z,99965.91
2019-04-29T16:15:23.177Z,99962.95
2019-04-29T16:17:51.913Z,99962.20
2019-04-29T16:20:20.393Z,99969.34
2019-04-29T16:22:48.785Z,99964.98
2019-04-29T16:25:17.178Z,99963.72
2019-04-29T16:27:51.521Z,99961.14
2019-04-29T16:30:18.977Z,99962.56
2019-04-29T16:32:47.299Z,99957.34
2019-04-29T16:35:18.015Z,99958.35
2019-04-29T16:37:47.648Z,99956.60
2019-04-29T16:40:16.573Z,99953.08
2019-04-29T16:42:49.249Z,99956.19
2019-04-29T16:45:17.712Z,99956.22
2019-04-29T16:47:48.661Z,99957.48
2019-04-29T16:50:16.514Z,99961.05
2019-04-29T16:52:44.953Z,99957.94
2019-04-29T16:55:13.584Z,99961.92
2019-04-29T16:57:42.231Z,99956.70
2019-04-29T17:00:14.050Z,99961.09
2019-04-29T17:02:42.050Z,99959.36
2019-04-29T17:05:10.963Z,99958.96
2019-04-29T17:07:39.359Z,99957.63
2019-04-29T17:10:21.249Z,99960.31
2019-04-29T17:12:50.616Z,99960.84
2019-04-29T17:15:25.079Z,99959.19
2019-04-29T17:17:49.255Z,99963.68
2019-04-29T17:20:18.279Z,99956.19
2019-04-29T17:22:46.780Z,99959.34
2019-04-29T17:25:16.319Z,99956.20
2019-04-29T17:27:49.297Z,99949.25
2019-04-29T17:30:38.258Z,99952.75
2019-04-29T17:33:27.420Z,99950.52
2019-04-29T17:35:50.956Z,99951.02
2019-04-29T17:38:19.597Z,99957.69
2019-04-29T17:40:51.217Z,99958.72
2019-04-29T17:43:28.656Z,99964.53
2019-04-29T17:46:01.489Z,99959.73
2019-04-29T17:48:34.459Z,99967.80
2019-04-29T17:51:04.649Z,99963.89
2019-04-29T17:53:35.424Z,99953.33
2019-04-29T17:56:05.618Z,99957.77
2019-04-29T17:58:36.006Z,99961.32
2019-04-29T18:01:09.179Z,99961.82
2019-04-29T18:03:55.878Z,99957.88
2019-04-29T18:06:28.755Z,99965.85
2019-04-29T18:08:58.854Z,99964.12
2019-04-29T18:11:27.254Z,99967.26
2019-04-29T18:13:56.892Z,99965.52
2019-04-29T18:16:28.496Z,99966.87
2019-04-29T18:19:01.921Z,99968.69
2019-04-29T18:21:32.193Z,99971.36
2019-04-29T18:24:15.349Z,99967.81
2019-04-29T18:26:52.749Z,99973.18
2019-04-29T18:29:21.343Z,99967.87
2019-04-29T18:31:49.735Z,99970.96
2019-04-29T18:34:18.199Z,99973.62
2019-04-29T18:36:46.833Z,99971.88
2019-04-29T18:39:20.211Z,99977.60
2019-04-29T18:41:46.978Z,99982.47
2019-04-29T18:44:19.481Z,99980.25
2019-04-29T18:46:53.246Z,99977.17
2019-04-29T18:49:15.994Z,99981.16
2019-04-29T18:51:45.591Z,99979.82
2019-04-29T18:54:13.962Z,99984.66
2019-04-29T18:56:42.343Z,99983.41
2019-04-29T18:59:10.756Z,99983.02
2019-04-29T19:01:39.155Z,99981.27
2019-04-29T19:04:20.768Z,99982.59
2019-04-29T19:06:51.267Z,99992.78
2019-04-29T19:09:21.068Z,99991.94
2019-04-29T19:11:49.751Z,99988.90
2019-04-29T19:14:20.577Z,99983.19
2019-04-29T19:16:48.249Z,99981.02
2019-04-29T19:19:18.810Z,99978.85
2019-04-29T19:21:47.472Z,99979.72
2019-04-29T19:24:16.266Z,99973.57
2019-04-29T19:26:44.958Z,99974.01
2019-04-29T19:29:13.334Z,99974.47
2019-04-29T19:31:48.105Z,99981.10
2019-04-29T19:34:14.805Z,99987.77
2019-04-29T19:36:42.088Z,99990.02
2019-04-29T19:39:10.488Z,100002.81
2019-04-29T19:41:38.978Z,99999.32
2019-04-29T19:44:07.950Z,100004.61
2019-04-29T19:46:38.483Z,100005.47
2019-04-29T19:49:09.879Z,100004.58
2019-04-29T19:51:39.301Z,100008.52
2019-04-29T19:54:06.761Z,100009.38
2019-04-29T19:56:36.272Z,100009.34
2019-04-29T19:59:11.989Z,100011.56
2019-04-29T20:01:37.364Z,100015.97
2019-04-29T20:04:13.909Z,100021.30
2019-04-29T20:06:37.930Z,100016.94
2019-04-29T20:09:14.609Z,100021.36
2019-04-29T20:11:39.454Z,100021.34
2019-04-29T20:14:18.206Z,100020.47
2019-04-29T20:16:44.569Z,100015.20
2019-04-29T20:19:21.003Z,100006.36
2019-04-29T20:21:47.258Z,100011.65
2019-04-29T20:24:17.528Z,100011.21
2019-04-29T20:26:47.065Z,100017.84
2019-04-29T20:29:16.191Z,100016.06
2019-04-29T20:31:51.557Z,100017.83
2019-04-29T20:34:20.354Z,100017.38
2019-04-29T20:36:45.779Z,100013.84
2019-04-29T20:39:16.950Z,100011.67
2019-04-29T20:41:47.040Z,100010.34
2019-04-29T20:44:16.256Z,100005.92
2019-04-29T20:47:12.376Z,100016.06
2019-04-29T20:49:16.109Z,100009.02
2019-04-29T20:51:51.653Z,100005.92
2019-04-29T20:54:19.573Z,100005.04
2019-04-29T20:56:48.518Z,100010.78
2019-04-29T20:59:17.228Z,100016.95
2019-04-29T21:01:47.460Z,100014.28
2019-04-29T21:04:30.516Z,100011.63
2019-04-29T21:06:58.962Z,100012.06
2019-04-29T21:09:16.832Z,100014.27
2019-04-29T21:12:03.281Z,100015.12
2019-04-29T21:14:34.405Z,100015.57
2019-04-29T21:17:09.410Z,100005.45
2019-04-29T21:19:33.670Z,100006.34
2019-04-29T21:22:02.070Z,100005.45
2019-04-29T21:24:30.461Z,100009.00
2019-04-29T21:26:58.961Z,100003.70
2019-04-29T21:29:27.366Z,100001.94
2019-04-29T21:32:01.468Z,100001.94
2019-04-29T21:34:29.681Z,100004.57
2019-04-29T21:37:15.668Z,99996.19
2019-04-29T21:39:48.445Z,100001.04
2019-04-29T21:42:35.721Z,100000.10
2019-04-29T21:45:03.508Z,100008.01
2019-04-29T21:47:41.601Z,100007.11
2019-04-29T21:50:00.789Z,100004.00
2019-04-29T21:52:29.210Z,100002.23
2019-04-29T21:54:57.603Z,99995.19
2019-04-29T21:57:26.017Z,99992.12
2019-04-29T21:59:55.548Z,99989.50
2019-04-29T22:02:26.100Z,99983.78
2019-04-29T22:04:55.171Z,99984.64
2019-04-29T22:07:25.646Z,99985.09
2019-04-29T22:09:55.568Z,99993.00
2019-04-29T22:12:24.175Z,99994.33
2019-04-29T22:14:54.212Z,99992.10
2019-04-29T22:17:26.258Z,99996.05
2019-04-29T22:19:57.376Z,99992.08
2019-04-29T22:22:23.105Z,99995.18
2019-04-29T22:24:51.739Z,99988.62
2019-04-29T22:27:20.379Z,99990.89
2019-04-29T22:29:48.872Z,99993.97
2019-04-29T22:32:19.162Z,99988.19
2019-04-29T22:34:49.428Z,99987.72
2019-04-29T22:37:20.680Z,99993.43
2019-04-29T22:39:48.240Z,99995.18
2019-04-29T22:42:18.340Z,99995.58
2019-04-29T22:44:46.893Z,99996.86
2019-04-29T22:47:17.238Z,99991.07
2019-04-29T22:49:45.398Z,100007.34
2019-04-29T22:52:14.061Z,100005.11
2019-04-29T22:54:42.701Z,100002.44
2019-04-29T22:57:11.096Z,99997.11
2019-04-29T22:59:39.596Z,100003.71
2019-04-29T23:02:07.989Z,99999.75
2019-04-29T23:04:36.385Z,100004.16
2019-04-29T23:07:04.885Z,100002.37
2019-04-29T23:09:33.291Z,99995.33
2019-04-29T23:12:01.681Z,100005.08
2019-04-29T23:14:30.250Z,100002.47
2019-04-29T23:19:32.387Z,100006.81
2019-04-29T23:22:10.590Z,100003.25
2019-04-29T23:24:55.864Z,100006.31
2019-04-29T23:27:25.867Z,99998.80
2019-04-29T23:29:54.454Z,99999.73
2019-04-29T23:32:22.844Z,99996.23
2019-04-29T23:34:51.579Z,100000.70
2019-04-29T23:37:23.848Z,99999.38
2019-04-29T23:39:50.086Z,99995.39
2019-04-29T23:42:18.682Z,99992.77
2019-04-29T23:44:47.151Z,99999.36
2019-04-29T23:47:17.645Z,99996.76
2019-04-29T23:49:46.799Z,99990.17
2019-04-29T23:52:16.039Z,99986.70
2019-04-29T23:54:48.477Z,99981.83
2019-04-29T23:57:23.776Z,99986.69
